sensor_id;sensor_type;location;lat;lon;timestamp;P1;durP1;ratioP1;P2;durP2;ratioP2
8331;SDS011;4203;48.144;14.118;2023-07-16T00:01:59;5.88;;;5.38;;
8331;SDS011;4203;48.144;14.118;2023-07-16T00:04:26;6.68;;;6.03;;
8331;SDS011;4203;48.144;14.118;2023-07-16T00:06:54;6.00;;;5.55;;
8331;SDS011;4203;48.144;14.118;2023-07-16T00:09:23;5.53;;;5.13;;
8331;SDS011;4203;48.144;14.118;2023-07-16T00:11:50;5.53;;;5.03;;
8331;SDS011;4203;48.144;14.118;2023-07-16T00:14:17;6.03;;;5.53;;
8331;SDS011;4203;48.144;14.118;2023-07-16T00:16:45;5.95;;;5.40;;
8331;SDS011;4203;48.144;14.118;2023-07-16T00:19:13;5.65;;;5.15;;
8331;SDS011;4203;48.144;14.118;2023-07-16T00:21:41;5.90;;;5.22;;
8331;SDS011;4203;48.144;14.118;2023-07-16T00:24:08;6.07;;;5.57;;
8331;SDS011;4203;48.144;14.118;2023-07-16T00:26:37;6.47;;;5.95;;
8331;SDS011;4203;48.144;14.118;2023-07-16T00:29:04;6.35;;;5.75;;
8331;SDS011;4203;48.144;14.118;2023-07-16T00:31:31;6.15;;;5.55;;
8331;SDS011;4203;48.144;14.118;2023-07-16T00:33:59;6.18;;;5.68;;
8331;SDS011;4203;48.144;14.118;2023-07-16T00:36:26;6.20;;;5.70;;
8331;SDS011;4203;48.144;14.118;2023-07-16T00:38:54;6.15;;;5.38;;
8331;SDS011;4203;48.144;14.118;2023-07-16T00:41:21;7.28;;;5.53;;
8331;SDS011;4203;48.144;14.118;2023-07-16T00:43:50;6.00;;;5.53;;
8331;SDS011;4203;48.144;14.118;2023-07-16T00:46:19;5.85;;;5.15;;
8331;SDS011;4203;48.144;14.118;2023-07-16T00:48:46;6.10;;;5.70;;
8331;SDS011;4203;48.144;14.118;2023-07-16T00:51:14;6.55;;;5.95;;
8331;SDS011;4203;48.144;14.118;2023-07-16T00:53:42;6.95;;;6.30;;
8331;SDS011;4203;48.144;14.118;2023-07-16T00:56:11;6.25;;;5.75;;
8331;SDS011;4203;48.144;14.118;2023-07-16T00:58:42;6.13;;;5.57;;
8331;SDS011;4203;48.144;14.118;2023-07-16T01:01:11;9.38;;;5.78;;
8331;SDS011;4203;48.144;14.118;2023-07-16T01:03:38;5.80;;;5.30;;
8331;SDS011;4203;48.144;14.118;2023-07-16T01:06:08;6.47;;;5.97;;
8331;SDS011;4203;48.144;14.118;2023-07-16T01:08:41;6.15;;;5.55;;
8331;SDS011;4203;48.144;14.118;2023-07-16T01:11:11;6.80;;;5.55;;
8331;SDS011;4203;48.144;14.118;2023-07-16T01:13:39;6.55;;;6.00;;
8331;SDS011;4203;48.144;14.118;2023-07-16T01:16:07;7.15;;;6.45;;
8331;SDS011;4203;48.144;14.118;2023-07-16T01:18:47;8.63;;;5.85;;
8331;SDS011;4203;48.144;14.118;2023-07-16T01:21:14;8.18;;;6.45;;
8331;SDS011;4203;48.144;14.118;2023-07-16T01:23:55;6.28;;;5.78;;
8331;SDS011;4203;48.144;14.118;2023-07-16T01:26:36;8.63;;;6.05;;
8331;SDS011;4203;48.144;14.118;2023-07-16T01:32:08;6.47;;;5.95;;
8331;SDS011;4203;48.144;14.118;2023-07-16T01:34:38;6.88;;;6.28;;
8331;SDS011;4203;48.144;14.118;2023-07-16T01:37:06;6.88;;;6.30;;
8331;SDS011;4203;48.144;14.118;2023-07-16T01:39:34;6.43;;;5.97;;
8331;SDS011;4203;48.144;14.118;2023-07-16T01:42:01;7.22;;;6.57;;
8331;SDS011;4203;48.144;14.118;2023-07-16T01:44:29;6.80;;;6.07;;
8331;SDS011;4203;48.144;14.118;2023-07-16T01:47:10;7.75;;;6.13;;
8331;SDS011;4203;48.144;14.118;2023-07-16T01:49:39;9.13;;;6.13;;
8331;SDS011;4203;48.144;14.118;2023-07-16T01:52:08;6.47;;;5.88;;
8331;SDS011;4203;48.144;14.118;2023-07-16T01:54:36;7.13;;;6.53;;
8331;SDS011;4203;48.144;14.118;2023-07-16T01:57:04;7.13;;;6.15;;
8331;SDS011;4203;48.144;14.118;2023-07-16T01:59:32;6.22;;;5.72;;
8331;SDS011;4203;48.144;14.118;2023-07-16T02:01:59;10.25;;;8.18;;
8331;SDS011;4203;48.144;14.118;2023-07-16T02:04:28;9.20;;;7.82;;
8331;SDS011;4203;48.144;14.118;2023-07-16T02:06:55;8.98;;;8.18;;
8331;SDS011;4203;48.144;14.118;2023-07-16T02:09:23;8.80;;;7.68;;
8331;SDS011;4203;48.144;14.118;2023-07-16T02:11:50;9.48;;;8.43;;
8331;SDS011;4203;48.144;14.118;2023-07-16T02:14:17;8.02;;;7.43;;
8331;SDS011;4203;48.144;14.118;2023-07-16T02:16:45;8.73;;;6.57;;
8331;SDS011;4203;48.144;14.118;2023-07-16T02:19:12;8.98;;;7.10;;
8331;SDS011;4203;48.144;14.118;2023-07-16T02:21:41;7.57;;;6.93;;
8331;SDS011;4203;48.144;14.118;2023-07-16T02:24:08;6.97;;;6.25;;
8331;SDS011;4203;48.144;14.118;2023-07-16T02:26:36;6.72;;;6.22;;
8331;SDS011;4203;48.144;14.118;2023-07-16T02:29:03;6.22;;;5.75;;
8331;SDS011;4203;48.144;14.118;2023-07-16T02:31:33;8.25;;;5.90;;
8331;SDS011;4203;48.144;14.118;2023-07-16T02:34:01;6.25;;;5.63;;
8331;SDS011;4203;48.144;14.118;2023-07-16T02:36:29;6.13;;;5.53;;
8331;SDS011;4203;48.144;14.118;2023-07-16T02:38:57;6.05;;;5.43;;
8331;SDS011;4203;48.144;14.118;2023-07-16T02:41:25;5.57;;;5.18;;
8331;SDS011;4203;48.144;14.118;2023-07-16T02:43:58;9.38;;;5.63;;
8331;SDS011;4203;48.144;14.118;2023-07-16T02:46:26;7.72;;;5.18;;
8331;SDS011;4203;48.144;14.118;2023-07-16T02:48:54;5.88;;;5.38;;
8331;SDS011;4203;48.144;14.118;2023-07-16T02:51:22;5.22;;;4.70;;
8331;SDS011;4203;48.144;14.118;2023-07-16T02:53:49;5.13;;;4.63;;
8331;SDS011;4203;48.144;14.118;2023-07-16T02:56:18;12.07;;;4.88;;
8331;SDS011;4203;48.144;14.118;2023-07-16T02:58:45;6.45;;;4.57;;
8331;SDS011;4203;48.144;14.118;2023-07-16T03:01:13;5.60;;;4.68;;
8331;SDS011;4203;48.144;14.118;2023-07-16T03:03:40;7.45;;;4.80;;
8331;SDS011;4203;48.144;14.118;2023-07-16T03:06:07;6.43;;;4.70;;
8331;SDS011;4203;48.144;14.118;2023-07-16T03:08:35;5.55;;;4.47;;
8331;SDS011;4203;48.144;14.118;2023-07-16T03:11:02;4.45;;;4.00;;
8331;SDS011;4203;48.144;14.118;2023-07-16T03:13:31;5.30;;;3.90;;
8331;SDS011;4203;48.144;14.118;2023-07-16T03:15:58;5.25;;;3.90;;
8331;SDS011;4203;48.144;14.118;2023-07-16T03:18:27;5.70;;;3.80;;
8331;SDS011;4203;48.144;14.118;2023-07-16T03:20:56;5.35;;;4.03;;
8331;SDS011;4203;48.144;14.118;2023-07-16T03:23:24;6.10;;;3.63;;
8331;SDS011;4203;48.144;14.118;2023-07-16T03:25:51;6.30;;;3.38;;
8331;SDS011;4203;48.144;14.118;2023-07-16T03:28:19;4.10;;;3.50;;
8331;SDS011;4203;48.144;14.118;2023-07-16T03:30:48;6.57;;;3.38;;
8331;SDS011;4203;48.144;14.118;2023-07-16T03:33:16;3.50;;;3.25;;
8331;SDS011;4203;48.144;14.118;2023-07-16T03:35:43;6.32;;;3.10;;
8331;SDS011;4203;48.144;14.118;2023-07-16T03:38:11;4.18;;;3.03;;
8331;SDS011;4203;48.144;14.118;2023-07-16T03:40:39;3.92;;;2.80;;
8331;SDS011;4203;48.144;14.118;2023-07-16T03:43:08;4.45;;;3.22;;
8331;SDS011;4203;48.144;14.118;2023-07-16T03:45:35;8.32;;;3.30;;
8331;SDS011;4203;48.144;14.118;2023-07-16T03:48:05;5.65;;;3.03;;
8331;SDS011;4203;48.144;14.118;2023-07-16T03:50:32;5.20;;;2.85;;
8331;SDS011;4203;48.144;14.118;2023-07-16T03:53:00;4.65;;;3.20;;
8331;SDS011;4203;48.144;14.118;2023-07-16T03:55:28;3.95;;;2.78;;
8331;SDS011;4203;48.144;14.118;2023-07-16T03:57:56;3.25;;;2.88;;
8331;SDS011;4203;48.144;14.118;2023-07-16T04:00:23;4.05;;;2.97;;
8331;SDS011;4203;48.144;14.118;2023-07-16T04:02:51;7.65;;;2.70;;
8331;SDS011;4203;48.144;14.118;2023-07-16T04:05:20;9.10;;;3.55;;
8331;SDS011;4203;48.144;14.118;2023-07-16T04:07:47;4.47;;;3.35;;
8331;SDS011;4203;48.144;14.118;2023-07-16T04:10:14;4.10;;;3.33;;
8331;SDS011;4203;48.144;14.118;2023-07-16T04:12:42;3.38;;;3.17;;
8331;SDS011;4203;48.144;14.118;2023-07-16T04:15:09;3.30;;;3.10;;
8331;SDS011;4203;48.144;14.118;2023-07-16T04:17:38;2.92;;;2.80;;
8331;SDS011;4203;48.144;14.118;2023-07-16T04:20:06;4.20;;;3.22;;
8331;SDS011;4203;48.144;14.118;2023-07-16T04:22:36;4.18;;;3.08;;
8331;SDS011;4203;48.144;14.118;2023-07-16T04:25:04;4.57;;;3.00;;
8331;SDS011;4203;48.144;14.118;2023-07-16T04:27:32;3.85;;;3.47;;
8331;SDS011;4203;48.144;14.118;2023-07-16T04:29:59;2.80;;;2.63;;
8331;SDS011;4203;48.144;14.118;2023-07-16T04:32:27;3.00;;;2.75;;
8331;SDS011;4203;48.144;14.118;2023-07-16T04:34:54;3.35;;;3.10;;
8331;SDS011;4203;48.144;14.118;2023-07-16T04:37:21;2.70;;;2.50;;
8331;SDS011;4203;48.144;14.118;2023-07-16T04:39:50;3.53;;;2.70;;
8331;SDS011;4203;48.144;14.118;2023-07-16T04:42:17;4.40;;;3.00;;
8331;SDS011;4203;48.144;14.118;2023-07-16T04:44:46;6.22;;;2.70;;
8331;SDS011;4203;48.144;14.118;2023-07-16T04:47:13;2.60;;;2.40;;
8331;SDS011;4203;48.144;14.118;2023-07-16T04:49:40;5.30;;;2.60;;
8331;SDS011;4203;48.144;14.118;2023-07-16T04:52:07;3.65;;;2.88;;
8331;SDS011;4203;48.144;14.118;2023-07-16T04:54:35;2.50;;;2.40;;
8331;SDS011;4203;48.144;14.118;2023-07-16T04:57:05;3.25;;;3.00;;
8331;SDS011;4203;48.144;14.118;2023-07-16T04:59:34;3.58;;;2.67;;
8331;SDS011;4203;48.144;14.118;2023-07-16T05:02:02;2.90;;;2.70;;
8331;SDS011;4203;48.144;14.118;2023-07-16T05:04:31;2.67;;;2.50;;
8331;SDS011;4203;48.144;14.118;2023-07-16T05:06:58;2.97;;;2.78;;
8331;SDS011;4203;48.144;14.118;2023-07-16T05:09:27;2.88;;;2.70;;
8331;SDS011;4203;48.144;14.118;2023-07-16T05:11:55;2.55;;;2.45;;
8331;SDS011;4203;48.144;14.118;2023-07-16T05:14:25;3.00;;;2.70;;
8331;SDS011;4203;48.144;14.118;2023-07-16T05:16:54;2.92;;;2.67;;
8331;SDS011;4203;48.144;14.118;2023-07-16T05:19:22;3.10;;;2.80;;
8331;SDS011;4203;48.144;14.118;2023-07-16T05:21:49;2.67;;;2.47;;
8331;SDS011;4203;48.144;14.118;2023-07-16T05:24:16;2.75;;;2.55;;
8331;SDS011;4203;48.144;14.118;2023-07-16T05:26:43;2.72;;;2.53;;
8331;SDS011;4203;48.144;14.118;2023-07-16T05:29:11;2.42;;;2.33;;
8331;SDS011;4203;48.144;14.118;2023-07-16T05:31:39;2.50;;;2.40;;
8331;SDS011;4203;48.144;14.118;2023-07-16T05:34:08;2.60;;;2.40;;
8331;SDS011;4203;48.144;14.118;2023-07-16T05:36:36;4.43;;;2.50;;
8331;SDS011;4203;48.144;14.118;2023-07-16T05:39:03;2.45;;;2.30;;
8331;SDS011;4203;48.144;14.118;2023-07-16T05:41:31;2.90;;;2.00;;
8331;SDS011;4203;48.144;14.118;2023-07-16T05:43:58;4.75;;;2.33;;
8331;SDS011;4203;48.144;14.118;2023-07-16T05:46:25;3.78;;;2.35;;
8331;SDS011;4203;48.144;14.118;2023-07-16T05:48:54;2.45;;;2.33;;
8331;SDS011;4203;48.144;14.118;2023-07-16T05:51:21;2.75;;;2.55;;
8331;SDS011;4203;48.144;14.118;2023-07-16T05:53:49;2.63;;;2.42;;
8331;SDS011;4203;48.144;14.118;2023-07-16T05:56:16;3.15;;;2.92;;
8331;SDS011;4203;48.144;14.118;2023-07-16T05:58:43;3.50;;;3.20;;
8331;SDS011;4203;48.144;14.118;2023-07-16T06:01:11;3.35;;;3.15;;
8331;SDS011;4203;48.144;14.118;2023-07-16T06:03:38;4.15;;;3.03;;
8331;SDS011;4203;48.144;14.118;2023-07-16T06:06:07;3.42;;;3.13;;
8331;SDS011;4203;48.144;14.118;2023-07-16T06:08:35;3.97;;;3.20;;
8331;SDS011;4203;48.144;14.118;2023-07-16T06:11:02;3.03;;;2.67;;
8331;SDS011;4203;48.144;14.118;2023-07-16T06:13:30;3.13;;;2.58;;
8331;SDS011;4203;48.144;14.118;2023-07-16T06:15:58;3.83;;;2.20;;
8331;SDS011;4203;48.144;14.118;2023-07-16T06:18:25;2.47;;;2.38;;
8331;SDS011;4203;48.144;14.118;2023-07-16T06:20:52;2.85;;;2.60;;
8331;SDS011;4203;48.144;14.118;2023-07-16T06:23:21;2.20;;;2.03;;
8331;SDS011;4203;48.144;14.118;2023-07-16T06:25:53;2.00;;;1.90;;
8331;SDS011;4203;48.144;14.118;2023-07-16T06:28:21;2.22;;;2.13;;
8331;SDS011;4203;48.144;14.118;2023-07-16T06:30:49;2.22;;;2.03;;
8331;SDS011;4203;48.144;14.118;2023-07-16T06:33:17;2.20;;;2.00;;
8331;SDS011;4203;48.144;14.118;2023-07-16T06:35:44;2.08;;;1.98;;
8331;SDS011;4203;48.144;14.118;2023-07-16T06:38:13;2.08;;;1.98;;
8331;SDS011;4203;48.144;14.118;2023-07-16T06:40:46;2.33;;;2.20;;
8331;SDS011;4203;48.144;14.118;2023-07-16T06:43:14;2.28;;;2.08;;
8331;SDS011;4203;48.144;14.118;2023-07-16T06:45:42;2.25;;;2.15;;
8331;SDS011;4203;48.144;14.118;2023-07-16T06:48:09;3.60;;;2.40;;
8331;SDS011;4203;48.144;14.118;2023-07-16T06:50:37;2.40;;;2.20;;
8331;SDS011;4203;48.144;14.118;2023-07-16T06:53:04;2.00;;;1.90;;
8331;SDS011;4203;48.144;14.118;2023-07-16T06:55:31;2.03;;;1.92;;
8331;SDS011;4203;48.144;14.118;2023-07-16T06:58:01;2.63;;;2.17;;
8331;SDS011;4203;48.144;14.118;2023-07-16T07:00:28;2.05;;;1.92;;
8331;SDS011;4203;48.144;14.118;2023-07-16T07:02:55;2.53;;;1.92;;
8331;SDS011;4203;48.144;14.118;2023-07-16T07:05:22;2.20;;;2.10;;
8331;SDS011;4203;48.144;14.118;2023-07-16T07:07:50;2.33;;;2.22;;
8331;SDS011;4203;48.144;14.118;2023-07-16T07:10:18;2.30;;;2.20;;
8331;SDS011;4203;48.144;14.118;2023-07-16T07:12:45;2.22;;;2.13;;
8331;SDS011;4203;48.144;14.118;2023-07-16T07:15:14;3.45;;;2.17;;
8331;SDS011;4203;48.144;14.118;2023-07-16T07:17:41;2.60;;;2.40;;
8331;SDS011;4203;48.144;14.118;2023-07-16T07:20:12;2.40;;;2.20;;
8331;SDS011;4203;48.144;14.118;2023-07-16T07:22:40;2.53;;;2.03;;
8331;SDS011;4203;48.144;14.118;2023-07-16T07:25:07;2.75;;;2.30;;
8331;SDS011;4203;48.144;14.118;2023-07-16T07:27:35;2.30;;;2.20;;
8331;SDS011;4203;48.144;14.118;2023-07-16T07:30:03;3.17;;;2.53;;
8331;SDS011;4203;48.144;14.118;2023-07-16T07:32:32;2.58;;;2.30;;
8331;SDS011;4203;48.144;14.118;2023-07-16T07:35:03;2.22;;;2.13;;
8331;SDS011;4203;48.144;14.118;2023-07-16T07:37:31;2.38;;;2.28;;
8331;SDS011;4203;48.144;14.118;2023-07-16T07:39:58;2.83;;;2.60;;
8331;SDS011;4203;48.144;14.118;2023-07-16T07:42:25;3.08;;;2.47;;
8331;SDS011;4203;48.144;14.118;2023-07-16T07:44:53;2.63;;;2.42;;
8331;SDS011;4203;48.144;14.118;2023-07-16T07:47:21;2.60;;;2.40;;
8331;SDS011;4203;48.144;14.118;2023-07-16T07:49:50;2.58;;;2.38;;
8331;SDS011;4203;48.144;14.118;2023-07-16T07:52:19;2.63;;;2.42;;
8331;SDS011;4203;48.144;14.118;2023-07-16T07:54:46;2.75;;;2.55;;
8331;SDS011;4203;48.144;14.118;2023-07-16T07:57:14;3.50;;;2.20;;
8331;SDS011;4203;48.144;14.118;2023-07-16T07:59:41;2.75;;;2.47;;
8331;SDS011;4203;48.144;14.118;2023-07-16T08:02:09;2.80;;;2.60;;
8331;SDS011;4203;48.144;14.118;2023-07-16T08:04:36;3.22;;;2.55;;
8331;SDS011;4203;48.144;14.118;2023-07-16T08:07:05;2.30;;;2.20;;
8331;SDS011;4203;48.144;14.118;2023-07-16T08:09:32;2.65;;;2.55;;
8331;SDS011;4203;48.144;14.118;2023-07-16T08:12:00;2.60;;;2.50;;
8331;SDS011;4203;48.144;14.118;2023-07-16T08:14:27;2.17;;;2.08;;
8331;SDS011;4203;48.144;14.118;2023-07-16T08:16:54;2.40;;;2.17;;
8331;SDS011;4203;48.144;14.118;2023-07-16T08:19:22;2.13;;;2.00;;
8331;SDS011;4203;48.144;14.118;2023-07-16T08:21:49;1.95;;;1.85;;
8331;SDS011;4203;48.144;14.118;2023-07-16T08:24:18;2.33;;;2.13;;
8331;SDS011;4203;48.144;14.118;2023-07-16T08:26:45;2.22;;;1.98;;
8331;SDS011;4203;48.144;14.118;2023-07-16T08:29:13;2.00;;;1.90;;
8331;SDS011;4203;48.144;14.118;2023-07-16T08:31:40;3.50;;;2.20;;
8331;SDS011;4203;48.144;14.118;2023-07-16T08:34:07;2.13;;;2.00;;
8331;SDS011;4203;48.144;14.118;2023-07-16T08:36:35;1.88;;;1.80;;
8331;SDS011;4203;48.144;14.118;2023-07-16T08:39:04;2.50;;;2.00;;
8331;SDS011;4203;48.144;14.118;2023-07-16T08:41:34;2.00;;;1.90;;
8331;SDS011;4203;48.144;14.118;2023-07-16T08:44:01;2.03;;;1.92;;
8331;SDS011;4203;48.144;14.118;2023-07-16T08:46:29;1.63;;;1.60;;
8331;SDS011;4203;48.144;14.118;2023-07-16T08:48:56;2.13;;;1.60;;
8331;SDS011;4203;48.144;14.118;2023-07-16T08:51:25;2.00;;;1.90;;
8331;SDS011;4203;48.144;14.118;2023-07-16T08:53:54;2.35;;;2.17;;
8331;SDS011;4203;48.144;14.118;2023-07-16T08:56:21;2.30;;;2.10;;
8331;SDS011;4203;48.144;14.118;2023-07-16T08:58:50;2.22;;;2.03;;
8331;SDS011;4203;48.144;14.118;2023-07-16T09:01:22;2.00;;;1.92;;
8331;SDS011;4203;48.144;14.118;2023-07-16T09:03:49;2.10;;;2.00;;
8331;SDS011;4203;48.144;14.118;2023-07-16T09:06:17;2.20;;;1.70;;
8331;SDS011;4203;48.144;14.118;2023-07-16T09:08:44;2.00;;;1.90;;
8331;SDS011;4203;48.144;14.118;2023-07-16T09:11:11;2.13;;;2.03;;
8331;SDS011;4203;48.144;14.118;2023-07-16T09:13:43;1.83;;;1.73;;
8331;SDS011;4203;48.144;14.118;2023-07-16T09:16:12;2.33;;;1.65;;
8331;SDS011;4203;48.144;14.118;2023-07-16T09:18:41;1.75;;;1.65;;
8331;SDS011;4203;48.144;14.118;2023-07-16T09:21:09;1.48;;;1.48;;
8331;SDS011;4203;48.144;14.118;2023-07-16T09:23:37;1.50;;;1.50;;
8331;SDS011;4203;48.144;14.118;2023-07-16T09:26:06;1.63;;;1.52;;
8331;SDS011;4203;48.144;14.118;2023-07-16T09:28:34;1.67;;;1.67;;
8331;SDS011;4203;48.144;14.118;2023-07-16T09:31:05;1.40;;;1.40;;
8331;SDS011;4203;48.144;14.118;2023-07-16T09:33:34;1.65;;;1.60;;
8331;SDS011;4203;48.144;14.118;2023-07-16T09:36:02;1.55;;;1.55;;
8331;SDS011;4203;48.144;14.118;2023-07-16T09:38:30;1.40;;;1.30;;
8331;SDS011;4203;48.144;14.118;2023-07-16T09:40:59;1.60;;;1.60;;
8331;SDS011;4203;48.144;14.118;2023-07-16T09:43:29;1.70;;;1.70;;
8331;SDS011;4203;48.144;14.118;2023-07-16T09:45:57;1.50;;;1.50;;
8331;SDS011;4203;48.144;14.118;2023-07-16T09:48:24;1.48;;;1.48;;
8331;SDS011;4203;48.144;14.118;2023-07-16T09:50:53;1.60;;;1.60;;
8331;SDS011;4203;48.144;14.118;2023-07-16T09:53:20;1.77;;;1.67;;
8331;SDS011;4203;48.144;14.118;2023-07-16T09:55:48;2.55;;;1.90;;
8331;SDS011;4203;48.144;14.118;2023-07-16T09:58:16;2.83;;;2.72;;
8331;SDS011;4203;48.144;14.118;2023-07-16T10:00:47;1.58;;;1.45;;
8331;SDS011;4203;48.144;14.118;2023-07-16T10:03:16;1.50;;;1.40;;
8331;SDS011;4203;48.144;14.118;2023-07-16T10:05:43;1.30;;;1.30;;
8331;SDS011;4203;48.144;14.118;2023-07-16T10:08:19;1.50;;;1.40;;
8331;SDS011;4203;48.144;14.118;2023-07-16T10:10:46;1.15;;;1.10;;
8331;SDS011;4203;48.144;14.118;2023-07-16T10:13:16;1.30;;;1.30;;
8331;SDS011;4203;48.144;14.118;2023-07-16T10:15:50;1.35;;;1.35;;
8331;SDS011;4203;48.144;14.118;2023-07-16T10:18:25;1.48;;;1.38;;
8331;SDS011;4203;48.144;14.118;2023-07-16T10:21:00;1.33;;;1.33;;
8331;SDS011;4203;48.144;14.118;2023-07-16T10:23:39;1.50;;;1.50;;
8331;SDS011;4203;48.144;14.118;2023-07-16T10:26:07;1.70;;;1.60;;
8331;SDS011;4203;48.144;14.118;2023-07-16T10:28:37;1.45;;;1.45;;
8331;SDS011;4203;48.144;14.118;2023-07-16T10:31:05;4.00;;;3.70;;
8331;SDS011;4203;48.144;14.118;2023-07-16T10:33:43;1.63;;;1.52;;
8331;SDS011;4203;48.144;14.118;2023-07-16T10:36:10;1.45;;;1.42;;
8331;SDS011;4203;48.144;14.118;2023-07-16T10:38:46;1.50;;;1.35;;
8331;SDS011;4203;48.144;14.118;2023-07-16T10:41:14;4.57;;;4.28;;
8331;SDS011;4203;48.144;14.118;2023-07-16T10:43:41;2.20;;;2.00;;
8331;SDS011;4203;48.144;14.118;2023-07-16T10:46:09;1.50;;;1.50;;
8331;SDS011;4203;48.144;14.118;2023-07-16T10:48:36;1.20;;;1.15;;
8331;SDS011;4203;48.144;14.118;2023-07-16T10:51:03;1.88;;;1.70;;
8331;SDS011;4203;48.144;14.118;2023-07-16T10:53:31;1.50;;;1.50;;
8331;SDS011;4203;48.144;14.118;2023-07-16T10:55:59;1.48;;;1.48;;
8331;SDS011;4203;48.144;14.118;2023-07-16T10:58:27;1.50;;;1.50;;
8331;SDS011;4203;48.144;14.118;2023-07-16T11:00:54;1.55;;;1.50;;
8331;SDS011;4203;48.144;14.118;2023-07-16T11:03:28;1.85;;;1.50;;
8331;SDS011;4203;48.144;14.118;2023-07-16T11:05:56;1.52;;;1.52;;
8331;SDS011;4203;48.144;14.118;2023-07-16T11:08:24;1.50;;;1.50;;
8331;SDS011;4203;48.144;14.118;2023-07-16T11:10:55;1.65;;;1.55;;
8331;SDS011;4203;48.144;14.118;2023-07-16T11:13:30;1.67;;;1.10;;
8331;SDS011;4203;48.144;14.118;2023-07-16T11:16:06;1.70;;;1.60;;
8331;SDS011;4203;48.144;14.118;2023-07-16T11:18:33;1.73;;;1.63;;
8331;SDS011;4203;48.144;14.118;2023-07-16T11:21:01;1.60;;;1.50;;
8331;SDS011;4203;48.144;14.118;2023-07-16T11:23:33;1.67;;;1.40;;
8331;SDS011;4203;48.144;14.118;2023-07-16T11:26:01;1.65;;;1.65;;
8331;SDS011;4203;48.144;14.118;2023-07-16T11:28:37;1.70;;;1.60;;
8331;SDS011;4203;48.144;14.118;2023-07-16T11:31:10;1.40;;;1.40;;
8331;SDS011;4203;48.144;14.118;2023-07-16T11:33:41;1.90;;;1.80;;
8331;SDS011;4203;48.144;14.118;2023-07-16T11:36:09;1.80;;;1.70;;
8331;SDS011;4203;48.144;14.118;2023-07-16T11:38:36;1.60;;;1.50;;
8331;SDS011;4203;48.144;14.118;2023-07-16T11:41:04;1.40;;;1.40;;
8331;SDS011;4203;48.144;14.118;2023-07-16T11:43:37;1.75;;;1.65;;
8331;SDS011;4203;48.144;14.118;2023-07-16T11:46:14;1.77;;;1.67;;
8331;SDS011;4203;48.144;14.118;2023-07-16T11:48:42;1.70;;;1.48;;
8331;SDS011;4203;48.144;14.118;2023-07-16T11:51:09;1.85;;;1.60;;
8331;SDS011;4203;48.144;14.118;2023-07-16T11:53:37;1.50;;;1.50;;
8331;SDS011;4203;48.144;14.118;2023-07-16T11:56:04;1.48;;;1.48;;
8331;SDS011;4203;48.144;14.118;2023-07-16T11:58:31;1.50;;;1.40;;
8331;SDS011;4203;48.144;14.118;2023-07-16T12:01:00;1.80;;;1.70;;
8331;SDS011;4203;48.144;14.118;2023-07-16T12:03:27;1.40;;;1.40;;
8331;SDS011;4203;48.144;14.118;2023-07-16T12:05:55;1.48;;;1.48;;
8331;SDS011;4203;48.144;14.118;2023-07-16T12:08:22;1.70;;;1.50;;
8331;SDS011;4203;48.144;14.118;2023-07-16T12:10:50;1.50;;;1.50;;
8331;SDS011;4203;48.144;14.118;2023-07-16T12:13:17;1.90;;;1.80;;
8331;SDS011;4203;48.144;14.118;2023-07-16T12:15:45;3.58;;;1.73;;
8331;SDS011;4203;48.144;14.118;2023-07-16T12:18:14;1.60;;;1.50;;
8331;SDS011;4203;48.144;14.118;2023-07-16T12:20:41;2.00;;;1.90;;
8331;SDS011;4203;48.144;14.118;2023-07-16T12:23:08;1.80;;;1.70;;
8331;SDS011;4203;48.144;14.118;2023-07-16T12:25:36;1.58;;;1.55;;
8331;SDS011;4203;48.144;14.118;2023-07-16T12:28:03;1.50;;;1.40;;
8331;SDS011;4203;48.144;14.118;2023-07-16T12:30:31;2.15;;;1.63;;
8331;SDS011;4203;48.144;14.118;2023-07-16T12:32:59;2.25;;;1.40;;
8331;SDS011;4203;48.144;14.118;2023-07-16T12:35:27;1.40;;;1.40;;
8331;SDS011;4203;48.144;14.118;2023-07-16T12:37:54;2.42;;;1.60;;
8331;SDS011;4203;48.144;14.118;2023-07-16T12:40:23;1.40;;;1.40;;
8331;SDS011;4203;48.144;14.118;2023-07-16T12:42:50;1.75;;;1.65;;
8331;SDS011;4203;48.144;14.118;2023-07-16T12:45:18;2.22;;;1.83;;
8331;SDS011;4203;48.144;14.118;2023-07-16T12:47:45;1.50;;;1.50;;
8331;SDS011;4203;48.144;14.118;2023-07-16T12:50:12;1.42;;;1.42;;
8331;SDS011;4203;48.144;14.118;2023-07-16T12:52:41;1.50;;;1.42;;
8331;SDS011;4203;48.144;14.118;2023-07-16T12:55:10;1.85;;;1.55;;
8331;SDS011;4203;48.144;14.118;2023-07-16T12:57:38;2.33;;;1.63;;
8331;SDS011;4203;48.144;14.118;2023-07-16T13:00:06;1.85;;;1.75;;
8331;SDS011;4203;48.144;14.118;2023-07-16T13:02:35;1.90;;;1.80;;
8331;SDS011;4203;48.144;14.118;2023-07-16T13:05:03;1.60;;;1.50;;
8331;SDS011;4203;48.144;14.118;2023-07-16T13:07:30;1.60;;;1.50;;
8331;SDS011;4203;48.144;14.118;2023-07-16T13:09:59;1.45;;;1.45;;
8331;SDS011;4203;48.144;14.118;2023-07-16T13:12:26;1.80;;;1.70;;
8331;SDS011;4203;48.144;14.118;2023-07-16T13:14:54;1.70;;;1.60;;
8331;SDS011;4203;48.144;14.118;2023-07-16T13:17:21;1.70;;;1.60;;
8331;SDS011;4203;48.144;14.118;2023-07-16T13:19:48;1.70;;;1.60;;
8331;SDS011;4203;48.144;14.118;2023-07-16T13:22:15;1.63;;;1.50;;
8331;SDS011;4203;48.144;14.118;2023-07-16T13:24:44;1.80;;;1.50;;
8331;SDS011;4203;48.144;14.118;2023-07-16T13:27:20;1.98;;;1.52;;
8331;SDS011;4203;48.144;14.118;2023-07-16T13:29:48;1.60;;;1.50;;
8331;SDS011;4203;48.144;14.118;2023-07-16T13:32:15;1.98;;;1.80;;
8331;SDS011;4203;48.144;14.118;2023-07-16T13:34:42;1.52;;;1.52;;
8331;SDS011;4203;48.144;14.118;2023-07-16T13:37:10;1.60;;;1.52;;
8331;SDS011;4203;48.144;14.118;2023-07-16T13:39:39;1.58;;;1.30;;
8331;SDS011;4203;48.144;14.118;2023-07-16T13:42:06;1.60;;;1.50;;
8331;SDS011;4203;48.144;14.118;2023-07-16T13:44:35;1.60;;;1.50;;
8331;SDS011;4203;48.144;14.118;2023-07-16T13:47:03;1.42;;;1.42;;
8331;SDS011;4203;48.144;14.118;2023-07-16T13:49:30;1.80;;;1.70;;
8331;SDS011;4203;48.144;14.118;2023-07-16T13:51:57;1.65;;;1.60;;
8331;SDS011;4203;48.144;14.118;2023-07-16T13:54:24;2.33;;;1.60;;
8331;SDS011;4203;48.144;14.118;2023-07-16T13:56:52;1.60;;;1.50;;
8331;SDS011;4203;48.144;14.118;2023-07-16T13:59:19;2.88;;;1.65;;
8331;SDS011;4203;48.144;14.118;2023-07-16T14:01:58;2.15;;;1.73;;
8331;SDS011;4203;48.144;14.118;2023-07-16T14:04:26;1.35;;;1.35;;
8331;SDS011;4203;48.144;14.118;2023-07-16T14:06:53;2.33;;;1.50;;
8331;SDS011;4203;48.144;14.118;2023-07-16T14:09:21;2.20;;;1.52;;
8331;SDS011;4203;48.144;14.118;2023-07-16T14:11:49;1.65;;;1.55;;
8331;SDS011;4203;48.144;14.118;2023-07-16T14:14:16;1.60;;;1.52;;
8331;SDS011;4203;48.144;14.118;2023-07-16T14:16:43;1.42;;;1.42;;
8331;SDS011;4203;48.144;14.118;2023-07-16T14:19:12;1.70;;;1.70;;
8331;SDS011;4203;48.144;14.118;2023-07-16T14:21:40;2.22;;;1.80;;
8331;SDS011;4203;48.144;14.118;2023-07-16T14:24:08;1.67;;;1.60;;
8331;SDS011;4203;48.144;14.118;2023-07-16T14:26:36;2.35;;;1.92;;
8331;SDS011;4203;48.144;14.118;2023-07-16T14:29:03;2.10;;;1.90;;
8331;SDS011;4203;48.144;14.118;2023-07-16T14:31:31;3.60;;;1.65;;
8331;SDS011;4203;48.144;14.118;2023-07-16T14:34:00;1.88;;;1.77;;
8331;SDS011;4203;48.144;14.118;2023-07-16T14:36:29;1.73;;;1.65;;
8331;SDS011;4203;48.144;14.118;2023-07-16T14:38:56;1.85;;;1.75;;
8331;SDS011;4203;48.144;14.118;2023-07-16T14:41:24;2.20;;;1.90;;
8331;SDS011;4203;48.144;14.118;2023-07-16T14:44:00;1.90;;;1.80;;
8331;SDS011;4203;48.144;14.118;2023-07-16T14:46:28;1.83;;;1.80;;
8331;SDS011;4203;48.144;14.118;2023-07-16T14:48:55;4.47;;;1.85;;
8331;SDS011;4203;48.144;14.118;2023-07-16T14:51:23;1.77;;;1.48;;
8331;SDS011;4203;48.144;14.118;2023-07-16T14:53:54;2.22;;;2.00;;
8331;SDS011;4203;48.144;14.118;2023-07-16T14:56:21;1.98;;;1.88;;
8331;SDS011;4203;48.144;14.118;2023-07-16T14:58:49;2.65;;;1.73;;
8331;SDS011;4203;48.144;14.118;2023-07-16T15:01:16;2.10;;;1.85;;
8331;SDS011;4203;48.144;14.118;2023-07-16T15:03:43;2.00;;;1.80;;
8331;SDS011;4203;48.144;14.118;2023-07-16T15:06:10;1.80;;;1.70;;
8331;SDS011;4203;48.144;14.118;2023-07-16T15:08:38;1.90;;;1.80;;
8331;SDS011;4203;48.144;14.118;2023-07-16T15:11:07;1.50;;;1.50;;